SAVT/REL METAR and TAF weather

Enter ICAO airport designator
Station Type Date Time Source
SAVT METAR 2021/09/08 14:30 UTC NOAA

SAVT 081430Z 34004KT 9999 BKN015 SCT020 12/11 Q1028


Station Type Date Time Source
SAVT Decoded METAR 2021/09/08 14:30 UTC NOAA

Trelew Aerodrome, Argentina (SAVT) 43-12S 065-16W 43M
Sep 08, 2021 - 10:30 AM EDT / 2021.09.08 1430 UTC
Wind: from the NNW (340 degrees) at 5 MPH (4 KT):0
Visibility: greater than 7 mile(s):0
Sky conditions: mostly cloudy
Temperature: 53 F (12 C)
Dew Point: 51 F (11 C)
Relative Humidity: 93%
Pressure (altimeter): 30.36 in. Hg (1028 hPa)
ob: SAVT 081430Z 34004KT 9999 BKN015 SCT020 12/11 Q1028
cycle: 14

Station Type Date Time Source
SAVT TAF 2021/09/02 12:42 UTC NOAA

TAF SAVT 021100Z 0212/0312 07005KT 9999 SCT020 BKN050 TX16/0218Z TN08/0212Z PROB40
TEMPO 0212/0216 -RA BKN025 OVC050
BECMG 0215/0216 02018KT BKN030

Example: see airport list